Time;durP1;ratioP1;P1;durP2;ratioP2;P2;SDS_P1;SDS_P2;PMS_P1;PMS_P2;Temp;Humidity;BMP_temperature;BMP_pressure;BME280_temperature;BME280_humidity;BME280_pressure;Samples;Min_cycle;Max_cycle;Signal;HPM_P1;HPM_P2
2021/08/05 00:01:35;;;;;;;3.45;2.85;;;;;;;;;;5074277;28;20020;-58
2021/08/05 00:04:00;;;;;;;3.22;3.00;;;;;;;;;;5073721;28;20108;-58
2021/08/05 00:06:26;;;;;;;3.78;3.10;;;;;;;;;;5074120;28;20455;-59
2021/08/05 00:08:51;;;;;;;4.78;3.22;;;;;;;;;;5074468;28;20017;-57
2021/08/05 00:11:16;;;;;;;3.67;3.38;;;;;;;;;;5074492;28;20016;-58
2021/08/05 00:13:42;;;;;;;4.30;3.90;;;;;;;;;;5074343;28;20025;-57
2021/08/05 00:16:07;;;;;;;6.30;4.35;;;;;;;;;;5073556;28;20048;-58
2021/08/05 00:18:32;;;;;;;4.43;3.90;;;;;;;;;;5074115;28;20075;-58
2021/08/05 00:20:57;;;;;;;3.88;3.67;;;;;;;;;;5074218;28;20466;-59
2021/08/05 00:23:22;;;;;;;3.50;3.30;;;;;;;;;;5074242;28;20016;-59
2021/08/05 00:25:48;;;;;;;3.10;2.90;;;;;;;;;;5074181;28;20070;-59
2021/08/05 00:28:13;;;;;;;4.70;3.53;;;;;;;;;;5073754;28;20081;-59
2021/08/05 00:30:38;;;;;;;5.95;3.90;;;;;;;;;;5072897;28;20134;-59
2021/08/05 00:33:03;;;;;;;3.95;3.65;;;;;;;;;;5073776;28;20099;-59
2021/08/05 00:35:28;;;;;;;4.00;3.60;;;;;;;;;;5073764;28;20020;-57
2021/08/05 00:37:54;;;;;;;4.28;3.95;;;;;;;;;;5073759;28;20379;-58
2021/08/05 00:40:19;;;;;;;3.83;2.92;;;;;;;;;;5073733;28;20089;-58
2021/08/05 00:42:49;;;;;;;3.35;2.95;;;;;;;;;;5073492;28;20028;-58
2021/08/05 00:45:14;;;;;;;3.33;3.13;;;;;;;;;;5073567;28;20032;-58
2021/08/05 00:47:39;;;;;;;3.63;3.33;;;;;;;;;;5071373;28;20009;-58
2021/08/05 00:50:05;;;;;;;4.13;2.80;;;;;;;;;;5066074;28;20028;-58
2021/08/05 00:52:30;;;;;;;3.60;3.30;;;;;;;;;;5073678;28;20017;-58
2021/08/05 00:54:55;;;;;;;4.97;3.22;;;;;;;;;;5073670;28;20406;-58
2021/08/05 00:57:21;;;;;;;3.10;2.80;;;;;;;;;;5059567;28;20406;-58
2021/08/05 00:59:46;;;;;;;3.80;3.50;;;;;;;;;;5070051;28;20032;-57
2021/08/05 01:02:12;;;;;;;3.20;2.90;;;;;;;;;;5073206;28;20099;-58
2021/08/05 01:04:38;;;;;;;4.38;3.10;;;;;;;;;;5073056;28;20078;-58
2021/08/05 01:07:06;;;;;;;3.40;3.10;;;;;;;;;;5072945;28;20048;-58
2021/08/05 01:09:35;;;;;;;4.05;3.38;;;;;;;;;;5072478;28;20070;-58
2021/08/05 01:12:06;;;;;;;3.42;3.17;;;;;;;;;;5072541;28;20020;-57
2021/08/05 01:14:34;;;;;;;3.13;2.60;;;;;;;;;;5072660;28;20099;-58
2021/08/05 01:16:59;;;;;;;3.75;3.45;;;;;;;;;;5055028;28;20050;-58
2021/08/05 01:19:47;;;;;;;3.75;3.38;;;;;;;;;;5073174;28;20028;-58
2021/08/05 01:22:21;;;;;;;4.30;3.10;;;;;;;;;;5072954;28;20029;-57
2021/08/05 01:24:52;;;;;;;3.67;2.75;;;;;;;;;;5063976;28;20103;-59
2021/08/05 01:27:18;;;;;;;4.70;3.55;;;;;;;;;;5072320;28;20036;-59
2021/08/05 01:29:44;;;;;;;5.90;3.80;;;;;;;;;;5072173;28;20063;-57
2021/08/05 01:32:09;;;;;;;4.18;3.78;;;;;;;;;;5072860;28;20433;-58
2021/08/05 01:34:36;;;;;;;6.68;4.05;;;;;;;;;;5071931;28;20508;-58
2021/08/05 01:37:03;;;;;;;3.95;3.65;;;;;;;;;;5054516;28;20036;-58
2021/08/05 01:39:29;;;;;;;5.13;4.28;;;;;;;;;;5072653;28;20013;-58
2021/08/05 01:41:54;;;;;;;5.20;4.70;;;;;;;;;;5072439;28;20024;-59
2021/08/05 01:44:19;;;;;;;5.28;4.75;;;;;;;;;;5072479;28;20024;-59
2021/08/05 01:46:45;;;;;;;5.90;5.20;;;;;;;;;;5072113;28;20028;-58
2021/08/05 01:49:11;;;;;;;5.97;5.28;;;;;;;;;;5072315;28;20017;-57
2021/08/05 01:51:37;;;;;;;4.47;4.10;;;;;;;;;;5072296;28;20023;-58
2021/08/05 01:54:02;;;;;;;4.65;4.20;;;;;;;;;;5072041;28;20029;-59
2021/08/05 01:56:27;;;;;;;6.63;5.47;;;;;;;;;;5054176;28;20463;-58
2021/08/05 01:58:57;;;;;;;7.63;5.53;;;;;;;;;;5071947;28;20075;-58
2021/08/05 02:01:22;;;;;;;5.68;5.07;;;;;;;;;;5071781;28;20064;-58
2021/08/05 02:03:54;;;;;;;6.47;5.72;;;;;;;;;;5072009;28;20061;-58
2021/08/05 02:06:21;;;;;;;7.45;5.78;;;;;;;;;;5071935;28;20450;-59
2021/08/05 02:08:50;;;;;;;6.35;4.97;;;;;;;;;;5066124;28;20017;-58
2021/08/05 02:11:16;;;;;;;7.22;5.53;;;;;;;;;;5062525;28;20030;-59
2021/08/05 02:13:41;;;;;;;8.00;6.22;;;;;;;;;;5071997;28;20111;-58
2021/08/05 02:16:08;;;;;;;9.90;5.90;;;;;;;;;;5053762;28;20035;-59
2021/08/05 02:18:34;;;;;;;7.78;5.22;;;;;;;;;;5071582;28;20020;-59
2021/08/05 02:21:00;;;;;;;7.35;5.53;;;;;;;;;;5071997;28;20146;-58
2021/08/05 02:23:26;;;;;;;5.80;5.05;;;;;;;;;;5071792;28;20111;-58
2021/08/05 02:25:53;;;;;;;8.38;6.25;;;;;;;;;;5071982;28;20530;-58
2021/08/05 02:28:19;;;;;;;6.68;5.22;;;;;;;;;;5071350;28;20017;-58
2021/08/05 02:30:45;;;;;;;5.32;4.78;;;;;;;;;;5071637;28;20421;-57
2021/08/05 02:33:11;;;;;;;9.18;5.38;;;;;;;;;;5071691;28;20023;-58
2021/08/05 02:35:38;;;;;;;9.00;6.20;;;;;;;;;;5053417;28;20464;-58
2021/08/05 02:38:03;;;;;;;10.25;6.40;;;;;;;;;;5071696;28;20031;-59
2021/08/05 02:40:29;;;;;;;8.50;5.68;;;;;;;;;;5071676;28;20025;-58
2021/08/05 02:42:55;;;;;;;9.93;6.30;;;;;;;;;;5071685;28;20039;-58
2021/08/05 02:45:20;;;;;;;6.63;5.80;;;;;;;;;;5071275;28;20047;-58
2021/08/05 02:47:46;;;;;;;10.10;5.78;;;;;;;;;;5071650;28;20470;-58
2021/08/05 02:50:13;;;;;;;6.45;5.32;;;;;;;;;;5071046;28;20052;-57
2021/08/05 02:52:39;;;;;;;6.70;5.55;;;;;;;;;;5071590;28;20013;-59
2021/08/05 02:55:05;;;;;;;8.13;5.55;;;;;;;;;;5071687;28;20023;-59
2021/08/05 02:57:30;;;;;;;7.28;4.72;;;;;;;;;;5071247;28;20477;-57
2021/08/05 02:59:56;;;;;;;8.55;4.97;;;;;;;;;;5071256;28;20456;-58
2021/08/05 03:02:21;;;;;;;7.30;4.78;;;;;;;;;;5071513;28;20024;-58
2021/08/05 03:04:47;;;;;;;6.70;4.78;;;;;;;;;;5071294;28;20021;-59
2021/08/05 03:07:13;;;;;;;9.55;4.50;;;;;;;;;;5070970;28;20041;-58
2021/08/05 03:09:38;;;;;;;7.82;6.40;;;;;;;;;;5055788;28;20101;-59
2021/08/05 03:12:03;;;;;;;8.82;7.22;;;;;;;;;;5056188;28;20028;-59
2021/08/05 03:14:28;;;;;;;10.80;5.72;;;;;;;;;;5071552;28;20012;-58
2021/08/05 03:16:53;;;;;;;9.32;5.78;;;;;;;;;;5071116;28;20070;-58
2021/08/05 03:19:19;;;;;;;9.13;5.93;;;;;;;;;;5052961;28;20033;-59
2021/08/05 03:21:44;;;;;;;9.65;5.95;;;;;;;;;;5071070;28;20020;-60
2021/08/05 03:24:09;;;;;;;6.65;4.50;;;;;;;;;;5071545;28;20028;-59
2021/08/05 03:26:34;;;;;;;5.22;4.72;;;;;;;;;;5071142;28;20366;-59
2021/08/05 03:28:59;;;;;;;5.22;4.35;;;;;;;;;;5071263;28;20113;-59
2021/08/05 03:31:25;;;;;;;5.47;4.93;;;;;;;;;;5071246;28;20024;-59
2021/08/05 03:33:50;;;;;;;6.43;4.55;;;;;;;;;;5072788;28;20016;-59
2021/08/05 03:36:15;;;;;;;6.38;4.78;;;;;;;;;;5074782;28;20025;-55
2021/08/05 03:38:40;;;;;;;5.55;5.10;;;;;;;;;;5074696;28;20032;-60
2021/08/05 03:41:06;;;;;;;4.60;4.20;;;;;;;;;;5074758;28;20397;-59
2021/08/05 03:43:32;;;;;;;5.30;4.80;;;;;;;;;;5074988;28;20038;-58
2021/08/05 03:45:57;;;;;;;7.68;4.95;;;;;;;;;;5074274;28;20021;-60
2021/08/05 03:48:22;;;;;;;7.32;5.38;;;;;;;;;;5074219;28;20078;-60
2021/08/05 03:50:47;;;;;;;7.53;4.68;;;;;;;;;;5074630;28;20382;-59
2021/08/05 03:53:13;;;;;;;6.57;4.38;;;;;;;;;;5056909;28;20089;-59
2021/08/05 03:55:38;;;;;;;7.85;5.03;;;;;;;;;;5074668;28;20382;-59
2021/08/05 03:58:06;;;;;;;6.45;4.30;;;;;;;;;;5073996;28;20098;-59
2021/08/05 04:00:31;;;;;;;6.55;4.80;;;;;;;;;;5074199;28;20024;-59
2021/08/05 04:02:56;;;;;;;7.05;4.90;;;;;;;;;;5074736;28;20020;-58
2021/08/05 04:05:22;;;;;;;5.05;4.63;;;;;;;;;;5055979;28;20029;-58
2021/08/05 04:07:47;;;;;;;6.32;5.32;;;;;;;;;;5066962;28;20133;-59
2021/08/05 04:10:12;;;;;;;6.05;5.43;;;;;;;;;;5074730;28;20021;-58
2021/08/05 04:12:37;;;;;;;7.28;5.43;;;;;;;;;;5074030;28;20013;-58
2021/08/05 04:15:03;;;;;;;7.80;4.90;;;;;;;;;;5074117;28;20097;-58
2021/08/05 04:17:28;;;;;;;8.98;5.80;;;;;;;;;;5074012;28;20028;-59
2021/08/05 04:19:54;;;;;;;6.97;5.20;;;;;;;;;;5073889;28;20039;-59
2021/08/05 04:22:19;;;;;;;6.38;4.93;;;;;;;;;;5074166;28;20035;-58
2021/08/05 04:24:44;;;;;;;6.78;5.30;;;;;;;;;;5074540;28;20027;-59
2021/08/05 04:27:09;;;;;;;7.43;4.72;;;;;;;;;;5066957;28;20387;-59
2021/08/05 04:29:34;;;;;;;6.78;4.90;;;;;;;;;;5055709;28;20016;-58
2021/08/05 04:32:00;;;;;;;8.00;5.00;;;;;;;;;;5073590;28;20025;-58
2021/08/05 04:34:25;;;;;;;5.80;4.03;;;;;;;;;;5073776;28;20016;-56
2021/08/05 04:36:50;;;;;;;6.63;5.60;;;;;;;;;;5073572;28;20363;-58
2021/08/05 04:39:15;;;;;;;6.53;4.75;;;;;;;;;;5073661;28;20046;-58
2021/08/05 04:41:40;;;;;;;7.20;5.43;;;;;;;;;;5073880;28;20029;-58
2021/08/05 04:44:06;;;;;;;10.98;5.00;;;;;;;;;;5073703;28;20028;-58
2021/08/05 04:46:31;;;;;;;8.32;5.03;;;;;;;;;;5072515;28;20020;-58
2021/08/05 04:48:56;;;;;;;7.78;5.07;;;;;;;;;;5073359;28;20008;-59
2021/08/05 04:51:21;;;;;;;8.13;4.70;;;;;;;;;;5073498;28;20029;-57
2021/08/05 04:53:46;;;;;;;5.90;4.70;;;;;;;;;;5073532;28;20040;-59
2021/08/05 04:56:12;;;;;;;5.93;4.50;;;;;;;;;;5073376;28;20153;-59
2021/08/05 04:58:37;;;;;;;7.55;4.22;;;;;;;;;;5073219;28;20020;-59
2021/08/05 05:01:02;;;;;;;7.03;4.30;;;;;;;;;;5073073;28;20036;-59
2021/08/05 05:03:27;;;;;;;7.88;4.47;;;;;;;;;;5073366;28;20379;-59
2021/08/05 05:05:53;;;;;;;9.43;5.22;;;;;;;;;;5073152;28;20124;-59
2021/08/05 05:08:22;;;;;;;6.35;4.10;;;;;;;;;;5068080;28;20028;-59
2021/08/05 05:10:49;;;;;;;6.28;4.38;;;;;;;;;;5054970;28;20068;-59
2021/08/05 05:13:15;;;;;;;11.25;4.85;;;;;;;;;;5073214;28;20020;-58
2021/08/05 05:15:40;;;;;;;4.50;3.75;;;;;;;;;;5072905;28;20023;-57
2021/08/05 05:18:05;;;;;;;6.65;4.57;;;;;;;;;;5073070;28;20024;-58
2021/08/05 05:20:31;;;;;;;5.03;3.97;;;;;;;;;;5072945;28;20040;-58
2021/08/05 05:22:56;;;;;;;4.40;4.00;;;;;;;;;;5072932;28;20500;-60
2021/08/05 05:25:22;;;;;;;6.75;4.47;;;;;;;;;;5072838;28;20473;-60
2021/08/05 05:27:47;;;;;;;7.53;4.28;;;;;;;;;;5072740;28;20020;-59
2021/08/05 05:30:13;;;;;;;6.07;4.50;;;;;;;;;;5072540;28;20028;-60
2021/08/05 05:32:39;;;;;;;4.95;4.30;;;;;;;;;;5072324;28;20103;-59
2021/08/05 05:35:06;;;;;;;8.82;4.55;;;;;;;;;;5072434;28;20016;-58
2021/08/05 05:37:31;;;;;;;4.43;4.03;;;;;;;;;;5072498;28;20027;-59
2021/08/05 05:39:56;;;;;;;5.65;4.18;;;;;;;;;;5072622;28;20020;-59
2021/08/05 05:42:23;;;;;;;8.85;4.22;;;;;;;;;;5072706;28;20455;-59
2021/08/05 05:44:48;;;;;;;5.15;4.22;;;;;;;;;;5072272;28;20020;-59
2021/08/05 05:47:14;;;;;;;5.82;4.60;;;;;;;;;;5072130;28;20500;-59
2021/08/05 05:49:39;;;;;;;4.50;4.03;;;;;;;;;;5072499;28;20105;-60
2021/08/05 05:52:05;;;;;;;4.35;4.05;;;;;;;;;;5072535;28;20016;-60
2021/08/05 05:54:30;;;;;;;7.93;4.10;;;;;;;;;;5071810;28;20008;-59
2021/08/05 05:56:55;;;;;;;4.70;3.50;;;;;;;;;;5053553;28;20129;-60
2021/08/05 05:59:21;;;;;;;9.20;6.40;;;;;;;;;;5071935;28;20115;-60
2021/08/05 06:01:46;;;;;;;7.70;4.00;;;;;;;;;;5072356;28;20478;-60
2021/08/05 06:04:11;;;;;;;5.00;4.60;;;;;;;;;;5072096;28;20040;-60
2021/08/05 06:06:36;;;;;;;5.72;5.10;;;;;;;;;;5072114;28;20072;-59
2021/08/05 06:09:02;;;;;;;4.53;4.13;;;;;;;;;;5071726;28;20028;-58
2021/08/05 06:11:28;;;;;;;4.82;4.40;;;;;;;;;;5072357;28;20378;-60
2021/08/05 06:13:53;;;;;;;5.55;5.05;;;;;;;;;;5071858;28;20016;-59
2021/08/05 06:16:19;;;;;;;10.60;6.15;;;;;;;;;;5071797;28;20359;-60
2021/08/05 06:18:44;;;;;;;5.40;4.20;;;;;;;;;;5071690;28;20048;-60
2021/08/05 06:21:09;;;;;;;6.07;4.37;;;;;;;;;;5071497;28;20024;-60
2021/08/05 06:23:34;;;;;;;5.18;4.65;;;;;;;;;;5071359;28;20267;-60
2021/08/05 06:25:59;;;;;;;5.13;4.20;;;;;;;;;;5071653;28;20498;-60
2021/08/05 06:28:25;;;;;;;5.25;3.70;;;;;;;;;;5071693;28;20025;-60
2021/08/05 06:30:50;;;;;;;4.63;4.22;;;;;;;;;;5053218;28;20028;-60
2021/08/05 06:33:15;;;;;;;5.32;4.05;;;;;;;;;;5071153;28;20025;-60
2021/08/05 06:35:40;;;;;;;4.53;3.77;;;;;;;;;;5071543;28;20029;-60
2021/08/05 06:38:05;;;;;;;3.80;3.45;;;;;;;;;;5071479;28;20278;-60
2021/08/05 06:40:31;;;;;;;7.83;4.10;;;;;;;;;;5071745;28;20103;-58
2021/08/05 06:42:56;;;;;;;4.10;3.67;;;;;;;;;;5071813;28;20255;-60
2021/08/05 06:45:21;;;;;;;4.47;3.40;;;;;;;;;;5071199;28;20051;-60
2021/08/05 06:47:46;;;;;;;4.28;3.88;;;;;;;;;;5071359;28;20383;-58
2021/08/05 06:50:12;;;;;;;5.78;4.00;;;;;;;;;;5072045;28;20020;-58
2021/08/05 06:52:37;;;;;;;6.15;3.72;;;;;;;;;;5071690;28;20012;-59
2021/08/05 06:55:03;;;;;;;4.20;3.65;;;;;;;;;;5071378;28;20115;-59
2021/08/05 06:57:28;;;;;;;4.63;3.50;;;;;;;;;;5071136;28;20099;-59
2021/08/05 06:59:54;;;;;;;3.65;3.03;;;;;;;;;;5071571;28;20012;-59
2021/08/05 07:02:19;;;;;;;3.08;2.78;;;;;;;;;;5071416;28;20051;-58
2021/08/05 07:04:44;;;;;;;3.10;2.80;;;;;;;;;;5070916;28;20062;-58
2021/08/05 07:07:09;;;;;;;5.65;3.30;;;;;;;;;;5071118;28;20298;-59
2021/08/05 07:09:35;;;;;;;3.85;3.28;;;;;;;;;;5069410;28;20020;-59
2021/08/05 07:12:00;;;;;;;4.13;2.85;;;;;;;;;;5075020;28;20035;-59
2021/08/05 07:14:25;;;;;;;3.45;2.85;;;;;;;;;;5075585;28;20012;-59
2021/08/05 07:16:50;;;;;;;2.72;2.38;;;;;;;;;;5074947;28;20062;-58
2021/08/05 07:19:15;;;;;;;3.00;2.70;;;;;;;;;;5075453;28;20074;-60
2021/08/05 07:21:41;;;;;;;3.58;3.00;;;;;;;;;;5083064;28;20293;-59
2021/08/05 07:24:06;;;;;;;3.78;3.47;;;;;;;;;;5063317;28;20032;-59
2021/08/05 07:26:31;;;;;;;5.13;4.20;;;;;;;;;;5093594;28;20120;-59
2021/08/05 07:28:57;;;;;;;3.50;3.20;;;;;;;;;;5057136;28;20635;-59
2021/08/05 07:31:22;;;;;;;2.60;2.38;;;;;;;;;;5073912;28;20094;-59
2021/08/05 07:33:52;;;;;;;4.78;3.08;;;;;;;;;;5074709;28;20016;-60
2021/08/05 07:36:18;;;;;;;3.95;3.47;;;;;;;;;;5074981;28;20051;-59
2021/08/05 07:38:43;;;;;;;3.50;3.20;;;;;;;;;;5074469;28;20024;-59
2021/08/05 07:41:08;;;;;;;4.97;3.75;;;;;;;;;;5075215;28;20333;-60
2021/08/05 07:43:34;;;;;;;3.60;3.20;;;;;;;;;;5074233;28;20491;-59
2021/08/05 07:45:59;;;;;;;4.90;3.42;;;;;;;;;;5074119;28;20490;-58
2021/08/05 07:48:24;;;;;;;3.95;3.10;;;;;;;;;;5074619;28;20023;-60
2021/08/05 07:50:49;;;;;;;3.75;3.00;;;;;;;;;;5074491;28;20025;-58
2021/08/05 07:53:15;;;;;;;4.43;3.97;;;;;;;;;;5056541;28;20013;-60
2021/08/05 07:55:40;;;;;;;4.75;4.00;;;;;;;;;;5074358;28;20274;-59
2021/08/05 07:58:05;;;;;;;6.18;4.75;;;;;;;;;;5074716;28;20063;-60
2021/08/05 08:00:35;;;;;;;5.50;4.15;;;;;;;;;;5073928;28;20029;-60
2021/08/05 08:03:00;;;;;;;6.05;4.30;;;;;;;;;;5074483;28;20024;-59
2021/08/05 08:05:25;;;;;;;4.60;4.20;;;;;;;;;;5073655;28;20377;-60
2021/08/05 08:07:51;;;;;;;3.93;3.63;;;;;;;;;;5073938;28;20802;-57
2021/08/05 08:10:16;;;;;;;4.63;4.25;;;;;;;;;;5074337;28;20277;-58
2021/08/05 08:12:41;;;;;;;3.78;3.47;;;;;;;;;;5074285;28;20020;-58
2021/08/05 08:15:07;;;;;;;4.10;3.83;;;;;;;;;;5073783;28;20071;-58
2021/08/05 08:17:32;;;;;;;4.82;4.43;;;;;;;;;;5073938;28;20020;-60
2021/08/05 08:19:58;;;;;;;3.67;3.47;;;;;;;;;;5074071;28;20059;-59
2021/08/05 08:22:23;;;;;;;3.97;3.67;;;;;;;;;;5073928;28;20286;-59
2021/08/05 08:24:48;;;;;;;5.30;3.53;;;;;;;;;;5074151;28;20028;-59
2021/08/05 08:27:14;;;;;;;3.60;3.30;;;;;;;;;;5073752;28;20032;-57
2021/08/05 08:29:39;;;;;;;4.70;4.27;;;;;;;;;;5073444;28;20381;-60
2021/08/05 08:32:04;;;;;;;3.77;3.40;;;;;;;;;;5073346;28;20301;-61
2021/08/05 08:34:29;;;;;;;3.83;3.58;;;;;;;;;;5073736;28;20269;-60
2021/08/05 08:36:55;;;;;;;3.67;3.47;;;;;;;;;;5073333;28;20024;-60
2021/08/05 08:39:22;;;;;;;3.25;2.95;;;;;;;;;;5073236;28;20633;-58
2021/08/05 08:41:47;;;;;;;3.83;3.53;;;;;;;;;;5073452;28;20058;-59
2021/08/05 08:44:14;;;;;;;4.20;3.80;;;;;;;;;;5073386;28;20129;-60
2021/08/05 08:46:40;;;;;;;3.75;3.45;;;;;;;;;;5072826;28;20633;-60
2021/08/05 08:49:05;;;;;;;3.83;3.33;;;;;;;;;;5073421;28;20024;-59
2021/08/05 08:51:31;;;;;;;4.55;4.03;;;;;;;;;;5073911;28;20052;-60
2021/08/05 08:53:58;;;;;;;4.32;3.92;;;;;;;;;;5073219;28;20066;-60
2021/08/05 08:56:24;;;;;;;3.92;3.53;;;;;;;;;;5073230;28;20539;-59
2021/08/05 08:58:50;;;;;;;3.20;3.00;;;;;;;;;;5072872;28;20028;-59
2021/08/05 09:01:16;;;;;;;3.30;3.10;;;;;;;;;;5072845;28;20074;-59
2021/08/05 09:03:41;;;;;;;3.53;3.22;;;;;;;;;;5055305;28;20043;-59
2021/08/05 09:06:06;;;;;;;3.72;3.42;;;;;;;;;;5072811;28;20095;-59
2021/08/05 09:08:31;;;;;;;4.20;3.90;;;;;;;;;;5066208;28;20485;-59
2021/08/05 09:10:56;;;;;;;4.88;4.47;;;;;;;;;;5053265;28;20266;-59
2021/08/05 09:13:22;;;;;;;4.30;4.00;;;;;;;;;;5053090;28;20017;-59
2021/08/05 09:15:47;;;;;;;4.40;4.00;;;;;;;;;;5069254;28;20024;-59
2021/08/05 09:18:31;;;;;;;4.20;3.90;;;;;;;;;;5072604;28;20035;-57
2021/08/05 09:21:05;;;;;;;4.82;4.43;;;;;;;;;;5073161;28;20099;-60
2021/08/05 09:24:01;;;;;;;4.22;3.92;;;;;;;;;;5073084;28;20020;-59
2021/08/05 09:26:28;;;;;;;4.60;4.30;;;;;;;;;;5030033;28;20032;-59
2021/08/05 09:29:05;;;;;;;5.35;4.63;;;;;;;;;;5072729;28;20020;-60
2021/08/05 09:31:31;;;;;;;5.03;4.53;;;;;;;;;;5071898;28;20024;-60
2021/08/05 09:34:00;;;;;;;4.88;4.47;;;;;;;;;;5072328;28;20024;-59
2021/08/05 09:36:27;;;;;;;6.00;5.45;;;;;;;;;;5072450;28;20047;-60
2021/08/05 09:38:53;;;;;;;5.63;4.95;;;;;;;;;;5052677;28;20033;-58
2021/08/05 09:41:18;;;;;;;5.95;5.45;;;;;;;;;;5055127;28;20073;-57
2021/08/05 09:43:43;;;;;;;5.97;5.57;;;;;;;;;;5072366;28;20024;-58
2021/08/05 09:46:10;;;;;;;6.50;6.00;;;;;;;;;;5054233;28;20283;-58
2021/08/05 09:48:42;;;;;;;7.55;6.95;;;;;;;;;;5072247;28;20270;-59
2021/08/05 09:51:09;;;;;;;8.75;8.05;;;;;;;;;;5072463;28;20024;-59
2021/08/05 09:53:35;;;;;;;10.48;9.13;;;;;;;;;;5072654;28;20016;-59
2021/08/05 09:56:10;;;;;;;9.68;8.88;;;;;;;;;;5072115;28;20025;-57
2021/08/05 09:58:35;;;;;;;9.35;8.65;;;;;;;;;;5071981;28;20032;-58
2021/08/05 10:01:05;;;;;;;9.52;8.63;;;;;;;;;;5071851;28;20047;-58
2021/08/05 10:03:30;;;;;;;10.63;9.75;;;;;;;;;;5072080;28;20021;-59
2021/08/05 10:05:57;;;;;;;10.10;9.20;;;;;;;;;;5071623;28;20054;-59
2021/08/05 10:08:31;;;;;;;8.65;8.00;;;;;;;;;;5071655;28;20466;-59
2021/08/05 10:10:56;;;;;;;7.50;6.90;;;;;;;;;;5069211;28;20059;-58
2021/08/05 10:13:38;;;;;;;8.63;7.83;;;;;;;;;;5071942;28;20064;-59
2021/08/05 10:16:04;;;;;;;9.38;8.63;;;;;;;;;;5071122;28;20285;-58
2021/08/05 10:18:34;;;;;;;10.43;9.52;;;;;;;;;;5071746;28;20020;-58
2021/08/05 10:21:00;;;;;;;14.02;12.65;;;;;;;;;;5072037;28;20503;-59
2021/08/05 10:23:28;;;;;;;12.88;11.73;;;;;;;;;;5071794;28;20025;-60
2021/08/05 10:25:54;;;;;;;11.23;10.32;;;;;;;;;;5072083;28;20028;-60
2021/08/05 10:28:20;;;;;;;11.32;10.43;;;;;;;;;;5058694;28;20070;-58
2021/08/05 10:30:45;;;;;;;9.27;8.48;;;;;;;;;;5051733;28;20025;-57
2021/08/05 10:33:11;;;;;;;8.10;7.47;;;;;;;;;;5052175;28;20024;-59
2021/08/05 10:35:37;;;;;;;8.73;8.00;;;;;;;;;;5071209;28;20020;-58
2021/08/05 10:38:03;;;;;;;8.10;7.50;;;;;;;;;;5071284;28;20028;-59
2021/08/05 10:40:28;;;;;;;7.35;6.75;;;;;;;;;;5071953;28;20103;-59
2021/08/05 10:42:55;;;;;;;7.65;7.15;;;;;;;;;;5052329;28;20096;-59
2021/08/05 10:45:21;;;;;;;8.30;7.60;;;;;;;;;;5051457;28;20025;-59
2021/08/05 10:47:48;;;;;;;8.02;7.43;;;;;;;;;;5058374;28;20542;-58
2021/08/05 10:50:14;;;;;;;8.30;7.60;;;;;;;;;;5071426;28;20109;-59
2021/08/05 10:52:41;;;;;;;7.43;6.82;;;;;;;;;;5071212;28;20105;-59
2021/08/05 10:55:09;;;;;;;8.50;7.80;;;;;;;;;;5053948;28;20098;-59
2021/08/05 10:57:34;;;;;;;8.57;7.82;;;;;;;;;;5071472;28;20062;-60
2021/08/05 11:00:09;;;;;;;9.30;8.50;;;;;;;;;;5071430;28;20558;-56
2021/08/05 11:02:34;;;;;;;;;;;;;;;;;;5071377;28;20027;-60
2021/08/05 11:05:00;;;;;;;9.13;8.52;;;;;;;;;;5071479;28;20003;-59
2021/08/05 11:07:25;;;;;;;9.02;8.15;;;;;;;;;;5070893;28;20123;-59
2021/08/05 11:09:51;;;;;;;10.45;9.50;;;;;;;;;;5071408;28;20048;-59
2021/08/05 11:12:35;;;;;;;9.25;8.55;;;;;;;;;;5071204;28;20486;-59
2021/08/05 11:15:00;;;;;;;8.80;8.10;;;;;;;;;;5071063;28;20032;-59
2021/08/05 11:17:25;;;;;;;9.60;8.90;;;;;;;;;;5071159;28;20020;-59
2021/08/05 11:20:10;;;;;;;9.27;8.57;;;;;;;;;;5071102;28;20031;-58
2021/08/05 11:22:39;;;;;;;9.38;8.68;;;;;;;;;;5071362;28;20028;-59
2021/08/05 11:25:04;;;;;;;9.20;8.40;;;;;;;;;;5071534;28;20054;-58
2021/08/05 11:27:29;;;;;;;9.65;8.63;;;;;;;;;;5071004;28;20478;-58
2021/08/05 11:29:55;;;;;;;9.68;8.82;;;;;;;;;;5070455;28;20040;-60
2021/08/05 11:32:26;;;;;;;9.70;8.45;;;;;;;;;;5070691;28;20431;-59
2021/08/05 11:34:54;;;;;;;9.20;8.40;;;;;;;;;;5070759;28;20070;-59
2021/08/05 11:37:20;;;;;;;9.40;8.70;;;;;;;;;;5071062;28;20036;-60
2021/08/05 11:39:50;;;;;;;9.77;8.88;;;;;;;;;;5071267;28;20017;-59
2021/08/05 11:42:16;;;;;;;9.00;7.85;;;;;;;;;;5071082;28;20021;-59
2021/08/05 11:44:41;;;;;;;9.27;8.25;;;;;;;;;;5052438;28;20028;-59
2021/08/05 11:47:11;;;;;;;9.05;8.30;;;;;;;;;;5070663;28;20027;-60
2021/08/05 11:49:42;;;;;;;8.63;7.85;;;;;;;;;;5070744;28;20024;-59
2021/08/05 11:52:17;;;;;;;7.30;6.70;;;;;;;;;;5071243;28;20013;-59
2021/08/05 11:54:44;;;;;;;6.38;5.80;;;;;;;;;;5072473;28;20028;-59
2021/08/05 11:57:10;;;;;;;7.63;6.93;;;;;;;;;;5074055;28;20411;-58
2021/08/05 11:59:38;;;;;;;6.60;6.10;;;;;;;;;;5074361;28;20111;-59
2021/08/05 12:02:05;;;;;;;6.50;5.90;;;;;;;;;;5074014;28;20564;-59
2021/08/05 12:04:30;;;;;;;6.75;6.10;;;;;;;;;;5074326;28;20060;-59
2021/08/05 12:07:16;;;;;;;7.47;6.72;;;;;;;;;;5073896;28;20091;-60
2021/08/05 12:09:41;;;;;;;6.63;6.03;;;;;;;;;;5073557;28;20095;-59
2021/08/05 12:12:07;;;;;;;6.10;5.60;;;;;;;;;;5074339;28;20012;-59
2021/08/05 12:14:32;;;;;;;5.70;5.30;;;;;;;;;;5073972;28;20052;-59
2021/08/05 12:16:57;;;;;;;5.80;5.30;;;;;;;;;;5073689;28;20449;-59
2021/08/05 12:19:22;;;;;;;4.30;4.00;;;;;;;;;;5073963;28;20028;-59
2021/08/05 12:21:48;;;;;;;5.43;5.03;;;;;;;;;;5074159;28;20098;-59
2021/08/05 12:24:13;;;;;;;5.10;4.70;;;;;;;;;;5074263;28;20034;-60
2021/08/05 12:26:38;;;;;;;5.35;4.95;;;;;;;;;;5073723;28;20020;-60
2021/08/05 12:29:10;;;;;;;6.65;5.93;;;;;;;;;;5073433;28;20130;-59
2021/08/05 12:31:36;;;;;;;5.03;4.63;;;;;;;;;;5073682;28;20060;-59
2021/08/05 12:34:01;;;;;;;6.55;5.93;;;;;;;;;;5073408;28;20041;-59
2021/08/05 12:36:26;;;;;;;7.80;7.10;;;;;;;;;;5055659;28;20021;-60
2021/08/05 12:38:51;;;;;;;7.40;6.80;;;;;;;;;;5073696;28;20099;-59
2021/08/05 12:41:26;;;;;;;5.50;5.10;;;;;;;;;;5073720;28;20739;-60
2021/08/05 12:43:55;;;;;;;5.22;4.88;;;;;;;;;;5073796;28;20481;-59
2021/08/05 12:46:21;;;;;;;6.15;5.72;;;;;;;;;;5073190;28;20037;-58
2021/08/05 12:48:48;;;;;;;5.60;5.10;;;;;;;;;;5073730;28;20019;-60
2021/08/05 12:51:14;;;;;;;6.57;6.05;;;;;;;;;;5073722;28;20079;-60
2021/08/05 12:53:39;;;;;;;6.53;5.93;;;;;;;;;;5073457;28;20099;-57
2021/08/05 12:56:04;;;;;;;6.63;6.13;;;;;;;;;;5073939;28;20024;-60
2021/08/05 12:58:30;;;;;;;6.82;6.30;;;;;;;;;;5073391;28;20421;-59
2021/08/05 13:01:14;;;;;;;6.15;5.75;;;;;;;;;;5073368;28;20040;-59
2021/08/05 13:03:41;;;;;;;6.13;5.70;;;;;;;;;;5072698;28;20028;-58
2021/08/05 13:06:06;;;;;;;6.50;6.00;;;;;;;;;;5071967;28;20045;-58
2021/08/05 13:08:33;;;;;;;6.57;6.07;;;;;;;;;;5066429;28;20082;-59
2021/08/05 13:10:59;;;;;;;7.40;6.88;;;;;;;;;;5053409;28;20055;-59
2021/08/05 13:13:43;;;;;;;6.43;5.93;;;;;;;;;;5053901;28;20028;-58
2021/08/05 13:16:22;;;;;;;5.70;5.30;;;;;;;;;;5072613;28;20098;-59
2021/08/05 13:19:08;;;;;;;4.88;3.08;;;;;;;;;;5072967;28;20425;-59
2021/08/05 13:21:34;;;;;;;2.97;2.78;;;;;;;;;;5072575;28;20040;-58
2021/08/05 13:24:34;;;;;;;2.30;2.10;;;;;;;;;;5072858;28;20246;-59
2021/08/05 13:27:01;;;;;;;2.40;2.20;;;;;;;;;;5025167;28;20084;-59
2021/08/05 13:29:46;;;;;;;1.73;1.63;;;;;;;;;;5024102;28;20040;-59
2021/08/05 13:32:13;;;;;;;2.50;2.30;;;;;;;;;;5030305;28;20601;-58
2021/08/05 13:34:38;;;;;;;3.60;2.88;;;;;;;;;;4999855;28;20030;-58
2021/08/05 13:37:04;;;;;;;3.10;2.80;;;;;;;;;;4992101;28;20019;-59
2021/08/05 13:39:48;;;;;;;2.83;2.63;;;;;;;;;;4991596;28;20102;-59
2021/08/05 13:42:14;;;;;;;2.90;2.60;;;;;;;;;;5010730;28;20132;-58
2021/08/05 13:44:39;;;;;;;2.95;2.70;;;;;;;;;;4994509;28;20631;-59
2021/08/05 13:47:04;;;;;;;5.40;2.30;;;;;;;;;;5010797;28;20069;-58
2021/08/05 13:49:30;;;;;;;2.60;2.40;;;;;;;;;;5030255;28;20522;-59
2021/08/05 13:51:55;;;;;;;2.78;2.58;;;;;;;;;;5010123;28;20021;-59
2021/08/05 13:54:20;;;;;;;2.63;2.30;;;;;;;;;;5010530;28;20037;-59
2021/08/05 13:56:45;;;;;;;2.80;2.60;;;;;;;;;;5010654;28;20032;-58
2021/08/05 13:59:10;;;;;;;2.80;2.60;;;;;;;;;;4992483;28;20687;-59
2021/08/05 14:01:36;;;;;;;2.50;2.30;;;;;;;;;;5037325;28;20271;-59
2021/08/05 14:04:01;;;;;;;1.90;1.80;;;;;;;;;;5071514;28;20448;-60
2021/08/05 14:06:26;;;;;;;2.30;1.67;;;;;;;;;;5071919;28;20095;-58
2021/08/05 14:08:51;;;;;;;1.92;1.83;;;;;;;;;;5071736;28;20851;-59
2021/08/05 14:11:16;;;;;;;1.43;1.33;;;;;;;;;;5072342;28;20510;-60
2021/08/05 14:13:42;;;;;;;2.15;1.60;;;;;;;;;;5071677;28;20259;-60
2021/08/05 14:16:07;;;;;;;1.47;1.23;;;;;;;;;;5049521;28;20101;-58
2021/08/05 14:18:32;;;;;;;1.65;1.45;;;;;;;;;;5053480;28;20278;-57
2021/08/05 14:20:57;;;;;;;2.60;1.40;;;;;;;;;;5071984;28;20122;-56
2021/08/05 14:23:23;;;;;;;2.65;1.98;;;;;;;;;;5071901;28;20078;-58
2021/08/05 14:25:48;;;;;;;2.50;1.40;;;;;;;;;;5071284;28;20028;-59
2021/08/05 14:28:13;;;;;;;1.88;1.60;;;;;;;;;;5071462;28;20091;-58
2021/08/05 14:30:38;;;;;;;1.63;1.45;;;;;;;;;;5071183;28;20020;-58
2021/08/05 14:33:03;;;;;;;1.90;1.80;;;;;;;;;;5071711;28;20021;-58
2021/08/05 14:35:29;;;;;;;1.30;1.20;;;;;;;;;;5071641;28;20518;-58
2021/08/05 14:37:54;;;;;;;1.58;1.08;;;;;;;;;;5071899;28;20017;-58
2021/08/05 14:40:19;;;;;;;1.17;1.03;;;;;;;;;;5071980;28;20024;-58